Time;durP1;ratioP1;P1;durP2;ratioP2;P2;SDS_P1;SDS_P2;PMS_P1;PMS_P2;Temp;Humidity;BMP_temperature;BMP_pressure;BME280_temperature;BME280_humidity;BME280_pressure;Samples;Min_cycle;Max_cycle;Signal;HPM_P1;HPM_P2
2023/08/12 00:00:24;;;;;;;0.85;0.52;;;23.00;49.30;;;;;;6255171;28;20620;-68
2023/08/12 00:03:25;;;;;;;0.73;0.60;;;23.00;49.20;;;;;;6272705;28;20020;-68
2023/08/12 00:06:26;;;;;;;0.43;0.43;;;23.00;49.20;;;;;;6254779;28;20530;-68
2023/08/12 00:09:26;;;;;;;0.82;0.57;;;23.00;49.30;;;;;;6272905;28;20555;-68
2023/08/12 00:12:27;;;;;;;0.68;0.60;;;23.00;49.20;;;;;;6254836;28;20064;-69
2023/08/12 00:15:28;;;;;;;0.90;0.60;;;23.00;49.20;;;;;;6272039;28;20033;-69
2023/08/12 00:18:28;;;;;;;0.95;0.63;;;23.00;49.30;;;;;;6272678;28;20033;-68
2023/08/12 00:21:29;;;;;;;0.52;0.52;;;23.00;49.10;;;;;;6272810;28;20021;-69
2023/08/12 00:24:30;;;;;;;0.57;0.50;;;23.00;49.20;;;;;;6272488;28;20025;-68
2023/08/12 00:27:31;;;;;;;0.50;0.40;;;23.00;49.20;;;;;;6272402;28;20390;-68
2023/08/12 00:30:31;;;;;;;0.75;0.50;;;23.00;49.20;;;;;;6254582;28;20036;-69
2023/08/12 00:33:32;;;;;;;0.60;0.50;;;23.00;49.20;;;;;;6254453;28;20498;-70
2023/08/12 00:36:33;;;;;;;0.50;0.50;;;23.00;49.10;;;;;;6271798;28;20025;-70
2023/08/12 00:39:34;;;;;;;0.55;0.55;;;23.00;49.10;;;;;;6271928;28;20112;-70
2023/08/12 00:42:35;;;;;;;0.43;0.40;;;23.00;49.10;;;;;;6271818;28;20029;-70
2023/08/12 00:45:35;;;;;;;0.30;0.30;;;23.00;49.00;;;;;;6245876;28;20041;-70
2023/08/12 00:48:36;;;;;;;0.63;0.50;;;22.90;49.00;;;;;;6252443;28;20037;-70
2023/08/12 00:51:41;;;;;;;0.60;0.50;;;23.00;49.10;;;;;;6254343;28;20083;-70
2023/08/12 00:54:42;;;;;;;0.60;0.55;;;23.00;49.00;;;;;;6271272;28;20029;-70
2023/08/12 00:57:43;;;;;;;0.68;0.50;;;23.00;49.00;;;;;;6272040;28;20331;-70
2023/08/12 01:00:44;;;;;;;0.40;0.40;;;23.00;49.10;;;;;;6271605;28;20029;-70
2023/08/12 01:03:45;;;;;;;0.52;0.40;;;23.00;49.00;;;;;;6270129;28;20083;-70
2023/08/12 01:06:45;;;;;;;0.57;0.47;;;23.00;49.00;;;;;;6253029;28;20049;-70
2023/08/12 01:09:46;;;;;;;0.80;0.50;;;23.00;48.90;;;;;;6271566;28;20033;-70
2023/08/12 01:12:58;;;;;;;0.50;0.50;;;23.00;48.90;;;;;;6271033;28;20041;-70
2023/08/12 01:16:03;;;;;;;0.70;0.50;;;23.00;49.00;;;;;;6252818;28;20116;-70
2023/08/12 01:19:09;;;;;;;0.80;0.60;;;23.00;48.80;;;;;;6253154;28;20025;-70
2023/08/12 01:22:12;;;;;;;0.80;0.50;;;23.00;48.90;;;;;;6271065;28;20485;-70
2023/08/12 01:25:13;;;;;;;0.80;0.47;;;23.00;49.70;;;;;;6253230;28;20143;-71
2023/08/12 01:28:14;;;;;;;0.60;0.60;;;23.00;48.80;;;;;;6270990;28;20108;-70
2023/08/12 01:31:34;;;;;;;0.68;0.45;;;23.00;48.90;;;;;;6271681;28;20040;-70
2023/08/12 01:34:46;;;;;;;0.35;0.35;;;23.00;48.90;;;;;;6252929;28;20056;-70
2023/08/12 01:37:50;;;;;;;0.50;0.50;;;23.00;48.90;;;;;;6271023;28;20029;-70
2023/08/12 01:40:52;;;;;;;0.60;0.50;;;23.00;48.80;;;;;;6253330;28;20513;-70
2023/08/12 01:43:53;;;;;;;1.45;0.68;;;23.00;48.80;;;;;;6271367;28;20025;-70
2023/08/12 01:46:54;;;;;;;0.77;0.50;;;23.00;48.80;;;;;;6270809;28;20032;-70
2023/08/12 01:49:56;;;;;;;1.58;0.70;;;23.00;48.70;;;;;;6252725;28;20032;-70
2023/08/12 01:52:57;;;;;;;1.00;0.63;;;23.00;48.70;;;;;;6270585;28;20025;-70
2023/08/12 01:55:58;;;;;;;2.05;0.60;;;23.00;48.70;;;;;;6270641;28;20634;-70
2023/08/12 01:58:59;;;;;;;0.45;0.40;;;23.00;48.80;;;;;;6252573;28;20029;-70
2023/08/12 02:01:59;;;;;;;1.35;0.75;;;23.00;48.70;;;;;;6270426;28;20095;-70
2023/08/12 02:05:00;;;;;;;1.23;0.80;;;23.00;48.60;;;;;;6251734;28;20482;-70
2023/08/12 02:08:01;;;;;;;1.15;0.70;;;23.00;49.40;;;;;;6269963;28;20028;-70
2023/08/12 02:11:01;;;;;;;0.77;0.70;;;23.00;48.70;;;;;;6269876;28;20033;-70
2023/08/12 02:14:02;;;;;;;1.40;0.60;;;23.00;48.60;;;;;;6251308;28;20479;-70
2023/08/12 02:17:05;;;;;;;0.80;0.60;;;23.00;48.60;;;;;;6251664;28;20041;-70
2023/08/12 02:20:07;;;;;;;0.73;0.70;;;23.00;48.50;;;;;;6252101;28;20037;-70
2023/08/12 02:23:07;;;;;;;0.52;0.50;;;23.00;48.60;;;;;;6252143;28;20119;-70
2023/08/12 02:26:08;;;;;;;1.30;0.57;;;23.00;48.60;;;;;;6269185;28;20557;-70
2023/08/12 02:29:10;;;;;;;0.95;0.52;;;23.00;48.60;;;;;;6252450;28;20112;-70
2023/08/12 02:32:12;;;;;;;1.55;0.55;;;23.00;48.50;;;;;;6251743;28;20080;-70
2023/08/12 02:35:13;;;;;;;0.80;0.60;;;23.00;48.60;;;;;;6269780;28;20033;-70
2023/08/12 02:38:14;;;;;;;0.60;0.50;;;23.00;48.50;;;;;;6251721;28;20072;-70
2023/08/12 02:41:14;;;;;;;0.47;0.40;;;23.00;49.20;;;;;;6251502;28;20029;-70
2023/08/12 02:44:15;;;;;;;0.93;0.50;;;23.00;48.50;;;;;;6269162;28;20100;-70
2023/08/12 02:47:16;;;;;;;0.90;0.80;;;23.00;48.50;;;;;;6268728;28;20025;-70
2023/08/12 02:50:16;;;;;;;0.65;0.60;;;23.00;48.60;;;;;;6269040;28;20061;-70
2023/08/12 02:53:17;;;;;;;0.77;0.63;;;23.00;48.50;;;;;;6250960;28;20508;-70
2023/08/12 02:56:18;;;;;;;0.60;0.47;;;23.00;48.50;;;;;;6250571;28;20732;-71
2023/08/12 02:59:19;;;;;;;0.65;0.52;;;23.00;48.50;;;;;;6268303;28;20449;-70
2023/08/12 03:02:19;;;;;;;0.98;0.60;;;23.00;49.10;;;;;;6269004;28;20025;-70
2023/08/12 03:05:21;;;;;;;0.88;0.60;;;23.00;48.40;;;;;;6268360;28;20127;-70
2023/08/12 03:08:21;;;;;;;1.05;0.60;;;23.00;48.80;;;;;;6268574;28;20021;-70
2023/08/12 03:11:22;;;;;;;0.40;0.40;;;23.00;48.40;;;;;;6268490;28;20064;-70
2023/08/12 03:14:23;;;;;;;1.38;0.77;;;23.00;48.50;;;;;;6268407;28;20119;-71
2023/08/12 03:17:24;;;;;;;0.47;0.43;;;23.00;48.40;;;;;;6268214;28;20060;-70
2023/08/12 03:20:25;;;;;;;0.55;0.50;;;23.00;48.40;;;;;;6250508;28;20032;-70
2023/08/12 03:23:26;;;;;;;0.40;0.40;;;23.00;48.30;;;;;;6250183;28;20537;-70
2023/08/12 03:26:26;;;;;;;0.55;0.50;;;23.00;48.30;;;;;;6267848;28;20513;-70
2023/08/12 03:29:27;;;;;;;0.63;0.50;;;23.00;48.40;;;;;;6268222;28;20036;-71
2023/08/12 03:32:27;;;;;;;0.90;0.60;;;23.10;48.20;;;;;;6250115;28;20060;-70
2023/08/12 03:35:28;;;;;;;0.80;0.50;;;23.00;48.20;;;;;;6250174;28;20405;-70
2023/08/12 03:38:29;;;;;;;0.40;0.40;;;23.10;48.20;;;;;;6242973;28;20455;-70
2023/08/12 03:41:30;;;;;;;0.70;0.57;;;23.00;48.20;;;;;;6243099;28;20559;-70
2023/08/12 03:44:31;;;;;;;1.50;0.52;;;23.00;48.20;;;;;;6258934;28;20030;-70
2023/08/12 03:47:31;;;;;;;0.90;0.50;;;23.10;48.30;;;;;;6258020;28;20040;-71
2023/08/12 03:50:39;;;;;;;0.73;0.63;;;23.10;48.10;;;;;;6258551;28;20395;-70
2023/08/12 03:53:40;;;;;;;0.63;0.52;;;23.00;48.10;;;;;;6242945;28;20091;-70
2023/08/12 03:56:41;;;;;;;0.60;0.50;;;23.00;48.20;;;;;;6230588;28;20052;-70
2023/08/12 04:03:38;;;;;;;0.40;0.40;;;23.00;48.10;;;;;;6267791;28;20426;-70
2023/08/12 04:06:39;;;;;;;1.20;0.60;;;23.10;48.20;;;;;;6267662;28;20094;-70
2023/08/12 04:09:40;;;;;;;0.40;0.40;;;23.10;48.10;;;;;;6267650;28;20037;-70
2023/08/12 04:12:41;;;;;;;0.40;0.40;;;23.10;48.20;;;;;;6267836;28;20504;-70
2023/08/12 04:15:42;;;;;;;0.47;0.47;;;23.00;48.00;;;;;;6267791;28;20561;-70
2023/08/12 04:18:43;;;;;;;0.60;0.50;;;23.10;48.10;;;;;;6249743;28;20091;-70
2023/08/12 04:21:46;;;;;;;0.70;0.60;;;23.10;48.10;;;;;;6267457;28;20083;-70
2023/08/12 04:24:47;;;;;;;0.60;0.50;;;23.10;48.10;;;;;;6249862;28;20059;-70
2023/08/12 04:27:49;;;;;;;0.68;0.50;;;23.10;48.00;;;;;;6250052;28;20033;-70
2023/08/12 04:30:52;;;;;;;0.38;0.38;;;23.10;47.90;;;;;;6267835;28;20036;-70
2023/08/12 04:33:53;;;;;;;0.40;0.40;;;23.10;48.10;;;;;;6241667;28;20068;-70
2023/08/12 04:36:54;;;;;;;0.43;0.43;;;23.10;48.10;;;;;;6244284;28;20056;-70
2023/08/12 04:39:55;;;;;;;0.55;0.45;;;23.10;47.90;;;;;;6272489;28;20027;-70
2023/08/12 04:42:56;;;;;;;0.57;0.50;;;23.10;47.80;;;;;;6245983;28;20026;-70
2023/08/12 04:45:56;;;;;;;0.75;0.50;;;23.10;47.90;;;;;;6229675;28;20046;-70
2023/08/12 04:48:57;;;;;;;0.63;0.60;;;23.10;48.00;;;;;;6247764;28;20685;-70
2023/08/12 04:51:58;;;;;;;0.98;0.70;;;23.10;47.90;;;;;;6247502;28;20504;-70
2023/08/12 04:54:59;;;;;;;0.60;0.50;;;23.10;47.90;;;;;;6271811;28;20025;-70
2023/08/12 04:58:02;;;;;;;0.80;0.60;;;23.00;47.90;;;;;;6271937;28;20106;-70
2023/08/12 05:01:02;;;;;;;0.77;0.50;;;23.00;48.00;;;;;;6271399;28;20079;-70
2023/08/12 05:04:03;;;;;;;0.75;0.57;;;23.00;48.00;;;;;;6271404;28;20068;-70
2023/08/12 05:07:05;;;;;;;0.55;0.47;;;23.10;48.00;;;;;;6271816;28;20025;-70
2023/08/12 05:10:06;;;;;;;0.55;0.47;;;23.10;47.90;;;;;;6254238;28;20075;-70
2023/08/12 05:13:06;;;;;;;0.40;0.40;;;23.00;47.80;;;;;;6253480;28;20040;-70
2023/08/12 05:16:07;;;;;;;0.55;0.50;;;23.00;47.80;;;;;;6253221;28;20535;-70
2023/08/12 05:19:08;;;;;;;0.70;0.60;;;23.00;47.80;;;;;;6271557;28;20029;-70
2023/08/12 05:22:09;;;;;;;0.70;0.50;;;23.00;47.80;;;;;;6253512;28;20060;-70
2023/08/12 05:25:10;;;;;;;0.63;0.52;;;23.00;47.80;;;;;;6270984;28;20379;-70
2023/08/12 05:28:10;;;;;;;0.47;0.40;;;23.10;47.80;;;;;;6253599;28;20127;-70
2023/08/12 05:31:11;;;;;;;0.82;0.45;;;23.10;47.90;;;;;;6253837;28;20036;-70
2023/08/12 05:34:12;;;;;;;0.65;0.30;;;23.10;48.50;;;;;;6270971;28;20060;-70
2023/08/12 05:37:12;;;;;;;1.02;0.40;;;23.10;47.80;;;;;;6270826;28;20029;-70
2023/08/12 05:40:13;;;;;;;0.43;0.40;;;23.00;47.60;;;;;;6245024;28;20037;-70
2023/08/12 05:43:14;;;;;;;0.47;0.43;;;23.10;47.70;;;;;;6246788;28;20541;-68
2023/08/12 05:46:15;;;;;;;0.40;0.40;;;23.10;47.70;;;;;;6229289;28;20065;-69
2023/08/12 05:49:15;;;;;;;0.38;0.38;;;23.10;47.70;;;;;;6246830;28;20116;-69
2023/08/12 05:52:16;;;;;;;0.50;0.50;;;23.10;47.80;;;;;;6246796;28;20032;-69
2023/08/12 05:55:17;;;;;;;0.35;0.35;;;23.10;47.60;;;;;;6265355;28;20093;-69
2023/08/12 05:58:18;;;;;;;0.50;0.50;;;23.10;47.70;;;;;;6253113;28;20021;-68
2023/08/12 06:01:19;;;;;;;0.40;0.40;;;23.10;47.70;;;;;;6253612;28;20576;-69
2023/08/12 06:04:19;;;;;;;0.40;0.40;;;23.10;47.70;;;;;;6271066;28;20034;-68
2023/08/12 06:07:20;;;;;;;0.70;0.60;;;23.00;47.70;;;;;;6271817;28;20017;-68
2023/08/12 06:10:21;;;;;;;0.60;0.45;;;23.10;47.70;;;;;;6271523;28;20108;-68
2023/08/12 06:13:21;;;;;;;0.60;0.60;;;23.10;47.60;;;;;;6271072;28;20094;-68
2023/08/12 06:16:22;;;;;;;0.70;0.50;;;23.00;47.50;;;;;;6270820;28;20063;-68
2023/08/12 06:19:23;;;;;;;0.47;0.45;;;23.00;47.60;;;;;;6253025;28;20409;-69
2023/08/12 06:22:23;;;;;;;0.32;0.32;;;23.10;47.70;;;;;;6253270;28;20071;-68
2023/08/12 06:25:24;;;;;;;0.75;0.40;;;23.00;47.50;;;;;;6252685;28;20040;-68
2023/08/12 06:28:25;;;;;;;0.50;0.40;;;23.10;47.70;;;;;;6270643;28;20621;-68
2023/08/12 06:31:25;;;;;;;0.38;0.35;;;23.10;47.50;;;;;;6270596;28;20033;-68
2023/08/12 06:34:26;;;;;;;0.50;0.50;;;23.10;47.50;;;;;;6252802;28;20103;-68
2023/08/12 06:37:27;;;;;;;0.57;0.40;;;23.10;47.50;;;;;;6252727;28;20517;-68
2023/08/12 06:40:27;;;;;;;0.40;0.40;;;23.10;47.40;;;;;;6252577;28;20032;-69
2023/08/12 06:43:28;;;;;;;0.52;0.30;;;23.10;47.60;;;;;;6270438;28;20029;-68
2023/08/12 06:46:30;;;;;;;0.30;0.30;;;23.10;47.40;;;;;;6252232;28;20033;-68
2023/08/12 06:49:31;;;;;;;0.38;0.38;;;23.10;47.30;;;;;;6270349;28;20037;-68
2023/08/12 06:52:31;;;;;;;0.47;0.45;;;23.10;47.40;;;;;;6252325;28;20114;-68
2023/08/12 06:55:32;;;;;;;0.30;0.30;;;23.10;47.40;;;;;;6270053;28;20568;-68
2023/08/12 06:58:33;;;;;;;0.30;0.30;;;23.10;47.30;;;;;;6249498;28;20490;-68
2023/08/12 07:01:33;;;;;;;0.30;0.30;;;23.10;47.40;;;;;;6268205;28;20377;-67
2023/08/12 07:04:34;;;;;;;0.40;0.40;;;23.10;47.40;;;;;;6269394;28;20095;-67
2023/08/12 07:07:35;;;;;;;0.47;0.30;;;23.00;47.40;;;;;;6246635;28;20537;-68
2023/08/12 07:10:40;;;;;;;0.30;0.30;;;22.90;48.80;;;;;;6268439;28;20025;-68
2023/08/12 07:13:42;;;;;;;0.40;0.40;;;22.60;49.50;;;;;;6268173;28;20094;-69
2023/08/12 07:16:43;;;;;;;0.45;0.45;;;22.40;50.10;;;;;;6268347;28;20486;-70
2023/08/12 07:19:44;;;;;;;0.30;0.30;;;22.30;50.80;;;;;;6249875;28;20056;-70
2023/08/12 07:22:44;;;;;;;0.50;0.50;;;22.30;51.10;;;;;;6268807;28;20029;-70
2023/08/12 07:25:48;;;;;;;0.50;0.50;;;22.20;51.60;;;;;;6267808;28;20029;-70
2023/08/12 07:28:49;;;;;;;0.40;0.40;;;22.10;51.90;;;;;;6268273;28;20082;-70
2023/08/12 07:31:49;;;;;;;0.60;0.40;;;22.10;52.20;;;;;;6267985;28;20041;-70
2023/08/12 07:34:50;;;;;;;0.30;0.30;;;22.10;52.40;;;;;;6249793;28;20090;-71
2023/08/12 07:37:51;;;;;;;0.43;0.40;;;22.10;52.50;;;;;;6267830;28;20044;-70
2023/08/12 07:40:51;;;;;;;0.30;0.30;;;22.10;52.70;;;;;;6250184;28;20025;-70
2023/08/12 07:43:52;;;;;;;0.30;0.30;;;22.00;52.70;;;;;;6268412;28;20028;-70
2023/08/12 07:46:53;;;;;;;0.20;0.20;;;22.00;52.90;;;;;;6241492;28;20040;-70
2023/08/12 07:49:54;;;;;;;0.60;0.40;;;22.00;52.90;;;;;;6243463;28;20032;-70
2023/08/12 07:52:55;;;;;;;0.50;0.50;;;22.00;53.00;;;;;;6249668;28;20039;-70
2023/08/12 07:55:56;;;;;;;0.30;0.30;;;22.00;53.10;;;;;;6267403;28;20021;-70
2023/08/12 07:58:56;;;;;;;0.70;0.60;;;22.00;53.20;;;;;;6267803;28;20029;-71
2023/08/12 08:01:57;;;;;;;0.57;0.43;;;22.00;53.20;;;;;;6250139;28;20494;-70
2023/08/12 08:04:58;;;;;;;0.43;0.30;;;22.00;53.30;;;;;;6249830;28;20044;-70
2023/08/12 08:07:58;;;;;;;0.30;0.30;;;22.00;53.10;;;;;;6267399;28;20040;-70
2023/08/12 08:10:59;;;;;;;0.45;0.43;;;22.00;53.20;;;;;;6267868;28;20033;-70
2023/08/12 08:14:00;;;;;;;0.52;0.30;;;22.00;53.10;;;;;;6253879;28;20040;-70
2023/08/12 08:17:00;;;;;;;0.40;0.40;;;22.00;53.20;;;;;;6272758;28;20025;-70
2023/08/12 08:20:02;;;;;;;0.40;0.40;;;21.90;53.10;;;;;;6254785;28;20052;-71
2023/08/12 08:23:03;;;;;;;0.30;0.30;;;21.90;53.00;;;;;;6272532;28;20029;-70
2023/08/12 08:26:04;;;;;;;0.38;0.38;;;21.90;53.10;;;;;;6272184;28;20039;-70
2023/08/12 08:29:05;;;;;;;1.17;0.40;;;21.90;53.10;;;;;;6272501;28;20405;-70
2023/08/12 08:32:06;;;;;;;0.77;0.40;;;21.90;53.20;;;;;;6253979;28;20072;-70
2023/08/12 08:35:07;;;;;;;0.80;0.45;;;21.90;53.20;;;;;;6271977;28;20032;-70
2023/08/12 08:38:08;;;;;;;0.40;0.40;;;21.90;53.30;;;;;;6245872;28;20037;-70
2023/08/12 08:41:10;;;;;;;0.40;0.40;;;21.90;53.40;;;;;;6249176;28;20021;-70
2023/08/12 08:44:13;;;;;;;0.40;0.40;;;21.90;53.50;;;;;;6272192;28;20445;-71
2023/08/12 08:47:16;;;;;;;1.00;0.30;;;21.90;53.50;;;;;;6254056;28;20045;-70
2023/08/12 08:50:18;;;;;;;0.40;0.40;;;21.90;53.60;;;;;;6253713;28;20055;-70
2023/08/12 08:53:19;;;;;;;0.30;0.30;;;21.90;53.70;;;;;;6271637;28;20025;-70
2023/08/12 08:56:21;;;;;;;0.35;0.35;;;21.90;54.00;;;;;;6253468;28;20087;-71
2023/08/12 08:59:22;;;;;;;0.20;0.20;;;21.90;54.00;;;;;;6271378;28;20029;-71
2023/08/12 09:02:24;;;;;;;0.40;0.40;;;21.90;54.00;;;;;;6253242;28;20548;-70
2023/08/12 09:05:26;;;;;;;0.30;0.20;;;21.90;54.00;;;;;;6271669;28;20053;-70
2023/08/12 09:08:31;;;;;;;0.30;0.30;;;21.80;53.90;;;;;;6250650;28;20502;-70
2023/08/12 09:11:33;;;;;;;0.22;0.22;;;21.90;54.30;;;;;;6253241;28;20040;-71
2023/08/12 09:14:34;;;;;;;0.52;0.40;;;21.90;54.20;;;;;;6271310;28;20029;-70
2023/08/12 09:17:35;;;;;;;0.30;0.30;;;21.80;54.10;;;;;;6253367;28;20441;-70
2023/08/12 09:20:36;;;;;;;0.43;0.40;;;21.80;54.00;;;;;;6271536;28;20033;-70
2023/08/12 09:23:39;;;;;;;0.40;0.40;;;21.80;54.90;;;;;;6270335;28;20037;-70
2023/08/12 09:26:42;;;;;;;0.30;0.20;;;21.80;54.10;;;;;;6253448;28;20128;-70
2023/08/12 09:29:43;;;;;;;0.60;0.50;;;21.80;54.20;;;;;;6270703;28;20524;-70
2023/08/12 09:32:59;;;;;;;0.52;0.50;;;21.80;54.80;;;;;;6253257;28;20033;-70
2023/08/12 09:35:59;;;;;;;0.50;0.40;;;21.80;54.30;;;;;;6270678;28;20037;-70
2023/08/12 09:39:05;;;;;;;0.30;0.30;;;21.80;54.30;;;;;;6253126;28;20041;-70
2023/08/12 09:42:06;;;;;;;0.30;0.30;;;21.80;54.30;;;;;;6252609;28;20037;-70
2023/08/12 09:45:07;;;;;;;0.40;0.40;;;21.80;54.30;;;;;;6252431;28;20083;-70
2023/08/12 09:48:09;;;;;;;0.40;0.32;;;21.80;54.30;;;;;;6270632;28;20040;-70
2023/08/12 09:51:10;;;;;;;0.40;0.40;;;21.80;54.30;;;;;;6252657;28;20065;-70
2023/08/12 09:54:11;;;;;;;0.30;0.30;;;21.80;54.40;;;;;;6252881;28;20029;-71
2023/08/12 09:57:14;;;;;;;0.40;0.40;;;21.80;54.30;;;;;;6270364;28;20047;-70
2023/08/12 10:00:16;;;;;;;0.30;0.30;;;21.80;54.50;;;;;;6269945;28;20116;-71
2023/08/12 10:03:19;;;;;;;0.45;0.40;;;21.80;54.50;;;;;;6270184;28;20542;-70
2023/08/12 10:06:20;;;;;;;0.32;0.32;;;21.80;54.50;;;;;;6251754;28;20106;-70
2023/08/12 10:09:21;;;;;;;0.30;0.30;;;21.80;54.50;;;;;;6269613;28;20051;-71
2023/08/12 10:12:22;;;;;;;0.57;0.50;;;21.80;54.50;;;;;;6252162;28;20033;-70
2023/08/12 10:15:23;;;;;;;0.30;0.30;;;21.80;54.60;;;;;;6252517;28;20040;-71
2023/08/12 10:18:25;;;;;;;0.20;0.20;;;21.80;54.60;;;;;;6270477;28;20647;-70
2023/08/12 10:21:26;;;;;;;0.40;0.40;;;21.80;54.60;;;;;;6270231;28;20051;-70
2023/08/12 10:24:27;;;;;;;0.20;0.20;;;21.80;54.60;;;;;;6269842;28;20086;-70
2023/08/12 10:27:28;;;;;;;0.43;0.30;;;21.80;54.70;;;;;;6270037;28;20029;-71
2023/08/12 10:30:31;;;;;;;0.38;0.35;;;21.80;54.60;;;;;;6270315;28;20363;-70
2023/08/12 10:33:36;;;;;;;0.63;0.38;;;21.80;54.70;;;;;;6251563;28;20040;-71
2023/08/12 10:36:41;;;;;;;0.45;0.45;;;21.80;54.70;;;;;;6251681;28;20131;-71
2023/08/12 10:39:42;;;;;;;0.40;0.40;;;21.80;54.70;;;;;;6270292;28;20087;-71
2023/08/12 10:42:44;;;;;;;0.20;0.20;;;21.80;54.80;;;;;;6269651;28;20021;-71
2023/08/12 10:45:51;;;;;;;0.65;0.38;;;21.80;54.80;;;;;;6251585;28;20029;-72
2023/08/12 10:49:06;;;;;;;0.28;0.28;;;21.80;54.80;;;;;;6251281;28;20563;-71
2023/08/12 10:52:26;;;;;;;0.30;0.30;;;21.80;54.80;;;;;;6251511;28;20033;-71
2023/08/12 10:55:27;;;;;;;0.20;0.20;;;21.80;54.80;;;;;;6269515;28;20561;-71
2023/08/12 10:58:33;;;;;;;0.30;0.30;;;21.80;54.90;;;;;;6269390;28;20505;-71
2023/08/12 11:01:34;;;;;;;0.40;0.40;;;21.80;54.80;;;;;;6251453;28;20697;-71
2023/08/12 11:04:38;;;;;;;0.40;0.40;;;21.80;54.90;;;;;;6268709;28;20050;-71
2023/08/12 11:07:45;;;;;;;0.20;0.20;;;21.70;54.80;;;;;;6251443;28;20588;-71
2023/08/12 11:10:47;;;;;;;0.30;0.30;;;21.80;55.00;;;;;;6268996;28;20494;-71
2023/08/12 11:13:54;;;;;;;0.30;0.20;;;21.70;54.80;;;;;;6251118;28;20077;-71
2023/08/12 11:16:56;;;;;;;0.30;0.30;;;21.70;55.60;;;;;;6251096;28;20416;-70
2023/08/12 11:19:57;;;;;;;0.30;0.30;;;21.70;54.90;;;;;;6250882;28;20723;-71
2023/08/12 11:22:59;;;;;;;1.25;0.40;;;21.70;54.90;;;;;;6250997;28;20037;-71
2023/08/12 11:26:01;;;;;;;0.30;0.30;;;21.70;54.90;;;;;;6268385;28;20091;-70
2023/08/12 11:29:07;;;;;;;0.30;0.30;;;21.70;54.90;;;;;;6250862;28;20394;-71
2023/08/12 11:32:08;;;;;;;0.20;0.20;;;21.70;55.00;;;;;;6250847;28;20040;-70
2023/08/12 11:35:10;;;;;;;0.40;0.40;;;21.70;55.70;;;;;;6250797;28;20546;-71
2023/08/12 11:38:11;;;;;;;0.35;0.35;;;21.70;55.00;;;;;;6250318;28;20127;-71
2023/08/12 11:41:12;;;;;;;0.22;0.22;;;21.70;55.00;;;;;;6250972;28;20025;-70
2023/08/12 11:44:16;;;;;;;0.30;0.30;;;21.70;55.00;;;;;;6250329;28;20026;-71
2023/08/12 11:47:17;;;;;;;0.63;0.32;;;21.70;55.00;;;;;;6267940;28;20060;-71
2023/08/12 11:50:20;;;;;;;0.30;0.30;;;21.70;55.10;;;;;;6268475;28;20029;-71
2023/08/12 11:53:20;;;;;;;0.20;0.20;;;21.70;55.10;;;;;;6268524;28;20036;-71
2023/08/12 11:56:22;;;;;;;0.30;0.30;;;21.70;55.10;;;;;;6267942;28;20033;-71
2023/08/12 11:59:23;;;;;;;0.47;0.40;;;21.70;55.10;;;;;;6250327;28;20033;-71
2023/08/12 12:02:23;;;;;;;0.30;0.30;;;21.70;55.20;;;;;;6250332;28;20604;-71
2023/08/12 12:05:27;;;;;;;0.30;0.30;;;21.70;55.10;;;;;;6250262;28;20057;-71
2023/08/12 12:08:31;;;;;;;0.35;0.35;;;21.70;55.20;;;;;;6268065;28;20029;-71
2023/08/12 12:11:32;;;;;;;0.32;0.32;;;21.70;55.30;;;;;;6250420;28;20457;-71
2023/08/12 12:14:36;;;;;;;0.40;0.30;;;21.70;55.20;;;;;;6267830;28;20037;-70
2023/08/12 12:17:40;;;;;;;0.30;0.30;;;21.70;55.30;;;;;;6268074;28;20025;-71
2023/08/12 12:20:57;;;;;;;0.30;0.30;;;21.70;55.30;;;;;;6268067;28;20736;-71
2023/08/12 12:23:58;;;;;;;0.30;0.30;;;21.70;55.30;;;;;;6268270;28;20025;-71
2023/08/12 12:26:58;;;;;;;0.77;0.45;;;21.70;55.30;;;;;;6268016;28;20090;-71
2023/08/12 12:30:00;;;;;;;0.30;0.30;;;21.70;55.30;;;;;;6268096;28;20393;-71
2023/08/12 12:33:01;;;;;;;0.47;0.40;;;21.70;55.40;;;;;;6250452;28;20610;-71
2023/08/12 12:36:02;;;;;;;0.47;0.38;;;21.70;55.40;;;;;;6249406;28;20090;-70
2023/08/12 12:39:04;;;;;;;0.20;0.20;;;21.70;55.30;;;;;;6249974;28;20025;-70
2023/08/12 12:42:05;;;;;;;0.40;0.40;;;21.70;55.40;;;;;;6250033;28;20044;-70
2023/08/12 12:45:06;;;;;;;0.20;0.20;;;21.70;55.40;;;;;;6268063;28;20100;-71
2023/08/12 12:48:07;;;;;;;0.30;0.30;;;21.70;55.40;;;;;;6267680;28;20052;-71
2023/08/12 12:51:08;;;;;;;0.38;0.30;;;21.70;55.40;;;;;;6267745;28;20037;-71
2023/08/12 12:54:08;;;;;;;0.40;0.30;;;21.70;55.50;;;;;;6250076;28;20036;-70
2023/08/12 12:57:09;;;;;;;0.40;0.20;;;21.70;55.50;;;;;;6267397;28;20049;-71
2023/08/12 13:00:11;;;;;;;0.30;0.30;;;21.70;55.50;;;;;;6269989;28;20024;-72
2023/08/12 13:03:12;;;;;;;0.40;0.40;;;21.70;55.50;;;;;;6254381;28;20029;-71
2023/08/12 13:06:12;;;;;;;0.30;0.30;;;21.70;55.50;;;;;;6272267;28;20564;-71
2023/08/12 13:09:14;;;;;;;0.40;0.40;;;21.70;55.50;;;;;;6271721;28;20041;-71
2023/08/12 13:12:15;;;;;;;0.20;0.20;;;21.70;55.50;;;;;;6253725;28;20033;-71
2023/08/12 13:15:15;;;;;;;0.30;0.30;;;21.70;55.50;;;;;;6253750;28;20121;-71
2023/08/12 13:18:16;;;;;;;0.20;0.20;;;21.70;55.60;;;;;;6253795;28;20033;-71
2023/08/12 13:21:17;;;;;;;0.32;0.30;;;21.70;55.60;;;;;;6271816;28;20112;-71
2023/08/12 13:24:18;;;;;;;1.05;0.30;;;21.70;55.60;;;;;;6271303;28;20040;-71
2023/08/12 13:27:18;;;;;;;0.40;0.30;;;21.70;55.60;;;;;;6253498;28;20119;-71
2023/08/12 13:30:19;;;;;;;0.38;0.30;;;21.70;55.60;;;;;;6271755;28;20063;-71
2023/08/12 13:33:20;;;;;;;0.40;0.40;;;21.70;55.60;;;;;;6253573;28;20489;-71
2023/08/12 13:36:20;;;;;;;0.30;0.30;;;21.70;55.60;;;;;;6271365;28;20095;-71
2023/08/12 13:39:21;;;;;;;0.40;0.40;;;21.70;55.70;;;;;;6253313;28;20029;-71
2023/08/12 13:42:22;;;;;;;0.43;0.43;;;21.70;55.70;;;;;;6253404;28;20437;-71
2023/08/12 13:45:23;;;;;;;0.28;0.28;;;21.70;55.70;;;;;;6271221;28;20069;-71
2023/08/12 13:48:24;;;;;;;0.20;0.20;;;21.70;55.70;;;;;;6271288;28;20113;-71
2023/08/12 13:51:24;;;;;;;0.30;0.30;;;21.70;55.70;;;;;;6253017;28;20517;-70
2023/08/12 13:54:25;;;;;;;0.30;0.30;;;21.70;55.70;;;;;;6271162;28;20171;-70
2023/08/12 13:57:26;;;;;;;0.25;0.25;;;21.70;55.70;;;;;;6244533;28;20056;-72
2023/08/12 14:00:26;;;;;;;0.30;0.30;;;21.70;55.80;;;;;;6246036;28;20036;-71
2023/08/12 14:03:28;;;;;;;0.20;0.20;;;21.70;55.80;;;;;;6247715;28;20140;-72
2023/08/12 14:06:29;;;;;;;0.43;0.40;;;21.70;55.80;;;;;;6252808;28;20572;-71
2023/08/12 14:09:30;;;;;;;0.30;0.30;;;21.70;55.80;;;;;;6270022;28;20031;-71
2023/08/12 14:12:32;;;;;;;0.30;0.30;;;21.70;55.80;;;;;;6270504;28;20041;-71
2023/08/12 14:15:32;;;;;;;0.20;0.20;;;21.70;55.80;;;;;;6270537;28;20051;-71
2023/08/12 14:18:33;;;;;;;0.40;0.40;;;21.70;55.80;;;;;;6252414;28;20025;-71
2023/08/12 14:21:34;;;;;;;0.22;0.22;;;21.70;55.80;;;;;;6252218;28;20029;-72
2023/08/12 14:24:34;;;;;;;0.30;0.30;;;21.70;55.90;;;;;;6252259;28;20370;-71
2023/08/12 14:27:35;;;;;;;0.35;0.30;;;21.70;55.80;;;;;;6252221;28;20512;-71
2023/08/12 14:30:37;;;;;;;0.40;0.40;;;21.70;55.90;;;;;;6270353;28;20052;-70
2023/08/12 14:33:37;;;;;;;0.43;0.40;;;21.70;55.90;;;;;;6269442;28;20070;-70
2023/08/12 14:36:38;;;;;;;0.40;0.40;;;21.60;55.80;;;;;;6269749;28;20033;-71
2023/08/12 14:39:39;;;;;;;0.30;0.30;;;21.60;55.80;;;;;;6269260;28;20029;-71
2023/08/12 14:42:39;;;;;;;0.38;0.38;;;21.60;55.90;;;;;;6269821;28;20104;-71
2023/08/12 14:45:40;;;;;;;0.22;0.20;;;21.70;56.00;;;;;;6251423;28;20190;-71
2023/08/12 14:48:41;;;;;;;0.60;0.43;;;21.70;55.90;;;;;;6269257;28;20051;-71
2023/08/12 14:51:41;;;;;;;0.30;0.30;;;21.60;55.90;;;;;;6251996;28;20037;-71
2023/08/12 14:54:42;;;;;;;0.50;0.40;;;21.60;55.90;;;;;;6269513;28;20037;-71
2023/08/12 14:57:43;;;;;;;0.40;0.40;;;21.60;55.90;;;;;;6269778;28;20130;-71
2023/08/12 15:00:44;;;;;;;0.22;0.22;;;21.60;55.90;;;;;;6269613;28;20178;-71
2023/08/12 15:03:44;;;;;;;0.30;0.30;;;21.60;55.90;;;;;;6243277;28;20583;-71
2023/08/12 15:06:45;;;;;;;0.20;0.20;;;21.60;56.00;;;;;;6244389;28;20049;-71
2023/08/12 15:09:46;;;;;;;0.32;0.30;;;21.60;56.00;;;;;;6242820;28;20091;-71
2023/08/12 15:12:46;;;;;;;0.38;0.30;;;21.60;56.00;;;;;;6269099;28;20030;-70
2023/08/12 15:15:49;;;;;;;0.47;0.47;;;21.60;56.00;;;;;;6250437;28;20053;-71
2023/08/12 15:18:49;;;;;;;0.30;0.20;;;21.70;56.80;;;;;;6250799;28;20067;-72
2023/08/12 15:21:51;;;;;;;0.50;0.50;;;21.60;56.00;;;;;;6268015;28;20029;-70
2023/08/12 15:24:52;;;;;;;0.30;0.30;;;21.60;56.00;;;;;;6268758;28;20049;-71
2023/08/12 15:27:53;;;;;;;0.30;0.30;;;21.60;56.00;;;;;;6251013;28;20029;-71
2023/08/12 15:30:54;;;;;;;0.40;0.40;;;21.60;56.00;;;;;;6250755;28;20033;-71
2023/08/12 15:33:54;;;;;;;0.40;0.40;;;21.60;56.00;;;;;;6250908;28;20037;-72
2023/08/12 15:36:55;;;;;;;0.40;0.40;;;21.60;56.10;;;;;;6250716;28;20755;-71
2023/08/12 15:39:56;;;;;;;0.28;0.28;;;21.60;56.10;;;;;;6268815;28;20137;-71
2023/08/12 15:42:56;;;;;;;0.30;0.30;;;21.60;56.10;;;;;;6250822;28;20041;-71
2023/08/12 15:45:58;;;;;;;0.30;0.30;;;21.60;56.10;;;;;;6250894;28;20118;-71
2023/08/12 15:48:59;;;;;;;0.20;0.20;;;21.60;56.10;;;;;;6268595;28;20040;-70